Time;durP1;ratioP1;P1;durP2;ratioP2;P2;SDS_P1;SDS_P2;PMS_P1;PMS_P2;Temp;Humidity;BMP_temperature;BMP_pressure;BME280_temperature;BME280_humidity;BME280_pressure;Samples;Min_cycle;Max_cycle;Signal;HPM_P1;HPM_P2
2024/01/31 00:02:24;;;;;;;0.80;0.80;;;;;;;5.15;80.95;98888.88;5053213;28;20488;-76
2024/01/31 00:04:53;;;;;;;0.93;0.93;;;;;;;5.26;80.26;98892.41;5053309;28;20074;-76
2024/01/31 00:07:20;;;;;;;0.82;0.82;;;;;;;5.16;80.82;98893.19;5052593;28;20470;-77
2024/01/31 00:09:47;;;;;;;0.52;0.52;;;;;;;5.14;80.76;98886.34;5051139;28;20408;-77
2024/01/31 00:12:14;;;;;;;;;;;;;;;5.07;81.11;98890.47;5052046;28;20040;-77
2024/01/31 00:14:43;;;;;;;0.60;0.60;;;;;;;5.04;81.12;98890.72;5052560;28;19921;-76
2024/01/31 00:17:11;;;;;;;0.60;0.60;;;;;;;5.03;81.07;98884.59;5046792;28;20052;-76
2024/01/31 00:19:38;;;;;;;0.50;0.50;;;;;;;4.99;81.15;98891.09;5051890;28;20051;-76
2024/01/31 00:22:07;;;;;;;0.60;0.60;;;;;;;4.93;81.37;98896.91;5051031;28;20091;-75
2024/01/31 00:24:35;;;;;;;0.60;0.60;;;;;;;4.87;81.57;98893.94;5031387;28;20076;-74
2024/01/31 00:27:03;;;;;;;0.82;0.82;;;;;;;4.86;81.68;98894.91;5051534;28;20079;-74
2024/01/31 00:29:30;;;;;;;1.00;1.00;;;;;;;4.84;81.50;98895.03;5052299;28;20068;-74
2024/01/31 00:31:58;;;;;;;0.50;0.50;;;;;;;4.88;81.59;98883.22;5051990;28;20048;-75
2024/01/31 00:34:26;;;;;;;0.85;0.85;;;;;;;4.88;81.53;98887.69;5051400;28;20102;-76
2024/01/31 00:36:54;;;;;;;0.60;0.60;;;;;;;4.90;81.72;98899.81;5052186;28;20041;-75
2024/01/31 00:39:28;;;;;;;0.82;0.82;;;;;;;4.90;81.66;98888.38;5051915;28;20032;-76
2024/01/31 00:41:55;;;;;;;0.60;0.60;;;;;;;4.91;81.75;98893.53;5048186;28;20055;-76
2024/01/31 00:44:23;;;;;;;0.60;0.60;;;;;;;5.00;81.55;98891.94;5052411;28;20396;-76
2024/01/31 00:46:50;;;;;;;0.68;0.68;;;;;;;5.01;81.74;98893.63;5051796;28;20032;-76
2024/01/31 00:49:18;;;;;;;0.70;0.70;;;;;;;5.03;81.79;98902.28;5052330;28;20041;-77
2024/01/31 00:51:51;;;;;;;0.73;0.73;;;;;;;5.04;81.72;98904.81;5050771;28;20037;-76
2024/01/31 00:54:19;;;;;;;0.68;0.68;;;;;;;5.10;81.93;98904.28;5048427;28;20052;-76
2024/01/31 00:56:48;;;;;;;0.85;0.85;;;;;;;5.15;81.45;98901.25;5054440;28;20077;-77
2024/01/31 00:59:16;;;;;;;0.77;0.77;;;;;;;5.13;81.62;98905.84;5053679;28;20036;-77
2024/01/31 01:01:43;;;;;;;0.70;0.70;;;;;;;5.16;81.36;98902.94;5049215;28;20052;-77
2024/01/31 01:04:11;;;;;;;0.52;0.52;;;;;;;5.11;81.79;98911.25;5050877;28;20045;-76
2024/01/31 01:06:40;;;;;;;0.45;0.45;;;;;;;5.17;81.79;98915.22;5050615;28;20052;-77
2024/01/31 01:09:07;;;;;;;0.73;0.73;;;;;;;5.35;80.97;98918.94;5051101;28;20102;-76
2024/01/31 01:11:35;;;;;;;0.57;0.55;;;;;;;5.32;81.43;98913.91;5049319;28;20063;-76
2024/01/31 01:14:04;;;;;;;1.02;1.02;;;;;;;5.30;81.32;98899.13;5048915;28;20131;-73
2024/01/31 01:16:32;;;;;;;0.60;0.60;;;;;;;5.24;81.52;98899.66;5051743;28;20047;-73
2024/01/31 01:19:00;;;;;;;0.65;0.65;;;;;;;5.19;82.05;98888.63;5051214;28;20053;-73
2024/01/31 01:21:27;;;;;;;0.63;0.63;;;;;;;5.24;81.76;98899.66;5051319;28;20558;-73
2024/01/31 01:23:55;;;;;;;0.55;0.55;;;;;;;5.21;82.02;98889.31;5050326;28;20407;-73
2024/01/31 01:26:22;;;;;;;0.82;0.82;;;;;;;5.33;81.48;98894.41;5051806;28;20392;-74
2024/01/31 01:28:50;;;;;;;0.57;0.57;;;;;;;5.33;81.94;98898.88;5051150;28;20043;-75
2024/01/31 01:31:19;;;;;;;0.60;0.60;;;;;;;5.34;81.95;98903.19;5048209;28;20522;-75
2024/01/31 01:33:47;;;;;;;0.88;0.88;;;;;;;5.35;81.90;98902.22;5047134;28;20505;-74
2024/01/31 01:36:15;;;;;;;0.73;0.73;;;;;;;5.33;82.07;98914.75;5050891;28;20385;-75
2024/01/31 01:38:43;;;;;;;0.88;0.88;;;;;;;5.33;82.09;98909.47;5050648;28;20488;-75
2024/01/31 01:41:10;;;;;;;0.60;0.60;;;;;;;5.41;81.84;98905.19;5049916;28;20051;-75
2024/01/31 01:43:39;;;;;;;0.50;0.50;;;;;;;5.45;81.96;98911.91;5045275;28;20045;-75
2024/01/31 01:46:10;;;;;;;0.60;0.60;;;;;;;5.43;82.27;98913.00;5051009;28;20059;-75
2024/01/31 01:48:40;;;;;;;0.80;0.80;;;;;;;5.42;82.54;98914.81;5049910;28;20193;-75
2024/01/31 01:51:07;;;;;;;0.73;0.73;;;;;;;5.48;82.27;98914.31;5046850;28;20123;-74
2024/01/31 01:53:36;;;;;;;0.50;0.50;;;;;;;5.46;82.41;98905.66;5045427;28;20514;-74
2024/01/31 01:56:04;;;;;;;0.75;0.75;;;;;;;5.51;82.44;98910.53;5050194;28;20052;-74
2024/01/31 01:58:33;;;;;;;0.60;0.60;;;;;;;5.52;82.41;98901.63;5050675;28;20161;-74
2024/01/31 02:01:01;;;;;;;0.52;0.52;;;;;;;5.55;82.41;98896.09;5050071;28;20037;-74
2024/01/31 02:03:30;;;;;;;0.52;0.52;;;;;;;5.63;82.42;98900.72;5055911;28;20087;-74
2024/01/31 02:06:00;;;;;;;0.82;0.77;;;;;;;5.61;82.39;98908.78;5051196;28;20052;-76
2024/01/31 02:08:28;;;;;;;0.55;0.55;;;;;;;5.59;82.43;98894.88;5044953;28;20045;-76
2024/01/31 02:10:56;;;;;;;0.82;0.82;;;;;;;5.58;82.54;98887.03;5041932;28;20045;-75
2024/01/31 02:13:24;;;;;;;0.52;0.52;;;;;;;5.62;82.47;98888.44;5049935;28;20041;-75
2024/01/31 02:15:53;;;;;;;0.68;0.68;;;;;;;5.63;82.54;98890.13;5049614;28;20500;-75
2024/01/31 02:18:21;;;;;;;0.60;0.60;;;;;;;5.68;82.35;98898.53;5050609;28;20044;-75
2024/01/31 02:20:49;;;;;;;0.80;0.80;;;;;;;5.64;82.69;98903.25;5049501;28;20095;-75
2024/01/31 02:23:18;;;;;;;0.70;0.70;;;;;;;5.61;82.78;98897.34;5024594;28;20045;-75
2024/01/31 02:25:46;;;;;;;0.80;0.80;;;;;;;5.59;82.99;98904.63;5049322;28;20045;-74
2024/01/31 02:28:13;;;;;;;0.75;0.70;;;;;;;5.60;83.44;98908.94;5043459;28;20439;-75
2024/01/31 02:30:41;;;;;;;0.93;0.93;;;;;;;5.69;82.98;98910.81;5049342;28;20037;-74
2024/01/31 02:33:09;;;;;;;0.63;0.63;;;;;;;5.66;83.40;98905.75;5050343;28;20056;-75
2024/01/31 02:35:36;;;;;;;0.80;0.80;;;;;;;5.66;83.29;98911.91;5052622;28;20045;-74
2024/01/31 02:38:04;;;;;;;0.77;0.77;;;;;;;5.66;83.47;98911.91;5054572;28;20041;-75
2024/01/31 02:40:33;;;;;;;0.70;0.63;;;;;;;5.68;83.44;98920.56;5054676;28;20540;-77
2024/01/31 02:43:01;;;;;;;0.65;0.65;;;;;;;5.69;83.30;98916.09;5052750;28;20348;-75
2024/01/31 02:45:29;;;;;;;0.82;0.82;;;;;;;5.70;83.33;98913.31;5054766;28;20055;-75
2024/01/31 02:47:56;;;;;;;0.50;0.50;;;;;;;5.79;83.29;98906.41;5054245;28;20041;-76
2024/01/31 02:50:26;;;;;;;0.70;0.70;;;;;;;5.91;82.32;98901.88;5053736;28;20064;-75
2024/01/31 02:52:54;;;;;;;0.60;0.60;;;;;;;5.94;82.27;98905.09;5051599;28;20045;-74
2024/01/31 02:55:21;;;;;;;0.85;0.85;;;;;;;5.95;82.36;98908.56;5052873;28;20399;-76
2024/01/31 02:57:50;;;;;;;1.17;1.17;;;;;;;5.81;82.84;98899.16;5056961;28;20067;-75
2024/01/31 03:00:19;;;;;;;0.70;0.70;;;;;;;5.94;82.63;98912.19;5057163;28;20131;-75
2024/01/31 03:02:46;;;;;;;0.63;0.63;;;;;;;5.92;82.66;98906.22;5053746;28;20052;-74
2024/01/31 03:05:14;;;;;;;0.85;0.85;;;;;;;5.92;82.78;98914.97;5053542;28;20037;-75
2024/01/31 03:07:42;;;;;;;0.70;0.70;;;;;;;5.93;82.46;98914.00;5054174;28;20483;-75
2024/01/31 03:10:10;;;;;;;0.70;0.70;;;;;;;5.96;82.59;98905.78;5053234;28;20045;-77
2024/01/31 03:12:38;;;;;;;0.88;0.88;;;;;;;5.85;82.99;98911.16;5053940;28;20045;-73
2024/01/31 03:15:08;;;;;;;0.82;0.82;;;;;;;5.87;83.03;98909.22;5053695;28;20047;-75
2024/01/31 03:17:36;;;;;;;0.75;0.75;;;;;;;5.91;82.96;98917.78;5053583;28;20045;-75
2024/01/31 03:20:05;;;;;;;0.82;0.82;;;;;;;5.77;83.13;98908.34;5052881;28;20148;-74
2024/01/31 03:22:34;;;;;;;0.77;0.77;;;;;;;5.71;83.59;98911.50;5053723;28;20240;-74
2024/01/31 03:25:03;;;;;;;0.70;0.70;;;;;;;5.74;83.70;98908.59;5052323;28;20081;-74
2024/01/31 03:27:31;;;;;;;0.98;0.90;;;;;;;5.77;83.47;98917.13;5053293;28;20033;-74
2024/01/31 03:30:01;;;;;;;0.50;0.50;;;;;;;5.75;83.34;98920.84;5052727;28;20155;-75
2024/01/31 03:32:36;;;;;;;0.73;0.73;;;;;;;5.84;83.45;98912.97;5050531;28;20044;-76
2024/01/31 03:35:05;;;;;;;0.60;0.60;;;;;;;5.98;83.15;98918.91;5054074;28;20080;-76
2024/01/31 03:37:32;;;;;;;0.63;0.63;;;;;;;5.92;83.54;98920.28;5053354;28;20496;-75
2024/01/31 03:40:00;;;;;;;0.70;0.70;;;;;;;5.93;83.73;98919.31;5052113;28;20060;-74
2024/01/31 03:42:28;;;;;;;0.90;0.90;;;;;;;5.90;84.60;98916.94;5047393;28;20080;-74
2024/01/31 03:44:56;;;;;;;0.68;0.68;;;;;;;5.96;84.68;98918.19;5052097;28;20048;-74
2024/01/31 03:47:24;;;;;;;0.98;0.90;;;;;;;5.95;85.22;98922.66;5052600;28;20048;-74
2024/01/31 03:49:54;;;;;;;0.60;0.60;;;;;;;5.89;85.81;98917.91;5052486;28;20119;-74
2024/01/31 03:52:22;;;;;;;0.90;0.90;;;;;;;5.87;86.34;98915.34;5053005;28;20503;-74
2024/01/31 03:54:50;;;;;;;0.82;0.82;;;;;;;5.95;86.79;98922.66;5051620;28;20045;-74
2024/01/31 03:57:19;;;;;;;0.70;0.70;;;;;;;5.92;87.46;98922.09;5051624;28;20052;-76
2024/01/31 03:59:46;;;;;;;0.98;0.98;;;;;;;5.88;88.05;98921.53;5055223;28;20041;-76
2024/01/31 04:02:14;;;;;;;0.80;0.80;;;;;;;5.91;87.92;98923.06;5055013;28;20096;-76
2024/01/31 04:04:42;;;;;;;1.10;1.10;;;;;;;5.89;88.36;98925.84;5052001;28;20052;-75
2024/01/31 04:07:11;;;;;;;0.93;0.93;;;;;;;5.87;88.52;98906.56;5052536;28;20163;-75
2024/01/31 04:09:38;;;;;;;0.88;0.88;;;;;;;5.80;89.29;98916.03;5052344;28;20049;-75
2024/01/31 04:12:07;;;;;;;0.70;0.70;;;;;;;5.81;89.13;98920.34;5047662;28;20068;-75
2024/01/31 04:14:34;;;;;;;0.70;0.70;;;;;;;5.69;89.99;98916.09;5050214;28;20128;-74
2024/01/31 04:17:02;;;;;;;0.82;0.82;;;;;;;5.71;89.67;98911.50;5046100;28;20048;-75
2024/01/31 04:19:29;;;;;;;0.93;0.93;;;;;;;5.62;90.80;98906.97;5037081;28;20047;-75
2024/01/31 04:21:57;;;;;;;0.77;0.77;;;;;;;5.66;90.10;98911.06;5043436;28;20111;-76
2024/01/31 04:24:26;;;;;;;0.80;0.80;;;;;;;5.72;90.07;98911.34;5051362;28;20068;-78
2024/01/31 04:26:54;;;;;;;0.95;0.95;;;;;;;5.76;90.09;98922.53;5052442;28;20041;-78
2024/01/31 04:29:22;;;;;;;0.90;0.90;;;;;;;5.74;90.63;98922.66;5051704;28;20041;-78
2024/01/31 04:31:51;;;;;;;0.70;0.70;;;;;;;5.69;90.85;98921.41;5051925;28;20068;-77
2024/01/31 04:34:20;;;;;;;0.82;0.70;;;;;;;5.73;90.75;98925.44;5051202;28;20048;-76
2024/01/31 04:36:48;;;;;;;1.00;1.00;;;;;;;5.69;91.28;98929.34;5050755;28;20048;-76
2024/01/31 04:39:16;;;;;;;1.00;1.00;;;;;;;5.75;90.74;98939.41;5050553;28;20248;-76
2024/01/31 04:41:46;;;;;;;0.90;0.90;;;;;;;5.72;91.53;98944.94;5033995;28;20131;-76
2024/01/31 04:44:14;;;;;;;1.00;1.00;;;;;;;5.73;90.93;98944.81;5055823;28;20041;-76
2024/01/31 04:46:42;;;;;;;1.17;1.17;;;;;;;5.72;91.29;98944.94;5054479;28;20520;-76
2024/01/31 04:49:10;;;;;;;1.02;1.02;;;;;;;5.71;91.64;98945.94;5051327;28;20484;-78
2024/01/31 04:51:40;;;;;;;1.00;1.00;;;;;;;5.67;92.10;98945.34;5051780;28;20064;-78
2024/01/31 04:54:08;;;;;;;1.00;1.00;;;;;;;5.73;91.66;98950.13;5033671;28;20053;-77
2024/01/31 04:56:36;;;;;;;0.90;0.90;;;;;;;5.67;92.02;98942.72;5050677;28;20036;-78
2024/01/31 04:59:05;;;;;;;1.10;1.10;;;;;;;5.64;92.52;98947.41;5051249;28;20040;-77
2024/01/31 05:01:32;;;;;;;0.90;0.90;;;;;;;5.63;92.49;98954.53;5048752;28;20048;-77
2024/01/31 05:04:00;;;;;;;0.88;0.88;;;;;;;5.62;92.74;98958.13;5048356;28;20052;-76
2024/01/31 05:06:28;;;;;;;0.90;0.90;;;;;;;5.65;92.50;98957.03;5031008;28;20049;-77
2024/01/31 05:08:56;;;;;;;1.02;1.02;;;;;;;5.66;92.39;98961.38;5050778;28;20079;-77
2024/01/31 05:11:23;;;;;;;1.30;1.20;;;;;;;5.69;92.40;98966.41;5051773;28;20071;-75
2024/01/31 05:13:51;;;;;;;1.05;1.05;;;;;;;5.73;92.29;98973.97;5050028;28;20083;-76
2024/01/31 05:16:20;;;;;;;0.90;0.90;;;;;;;5.74;91.87;98965.03;5051655;28;20045;-75
2024/01/31 05:18:48;;;;;;;1.13;1.02;;;;;;;5.73;91.89;98968.66;5052523;28;20133;-76
2024/01/31 05:21:16;;;;;;;1.17;1.17;;;;;;;5.73;91.75;98970.47;5053346;28;20063;-75
2024/01/31 05:23:43;;;;;;;0.85;0.85;;;;;;;5.70;91.74;98962.81;5049617;28;20052;-75
2024/01/31 05:26:11;;;;;;;1.02;1.02;;;;;;;5.71;91.79;98967.13;5042219;28;20037;-75
2024/01/31 05:28:38;;;;;;;0.98;0.98;;;;;;;5.73;91.62;98967.81;5048546;28;20411;-75
2024/01/31 05:31:06;;;;;;;1.15;1.13;;;;;;;5.79;91.69;98972.63;5048157;28;20099;-75
2024/01/31 05:33:35;;;;;;;1.08;1.08;;;;;;;5.81;91.39;98958.25;5050911;28;20045;-76
2024/01/31 05:36:03;;;;;;;0.90;0.90;;;;;;;5.80;90.88;98959.25;5048016;28;20159;-75
2024/01/31 05:38:31;;;;;;;1.00;1.00;;;;;;;5.75;90.87;98958.78;5048745;28;20403;-77
2024/01/31 05:40:58;;;;;;;1.00;1.00;;;;;;;5.70;91.25;98961.00;5035816;28;20139;-76
2024/01/31 05:43:26;;;;;;;0.90;0.90;;;;;;;5.69;91.23;98954.03;5062322;22;20055;-73
2024/01/31 05:45:53;;;;;;;0.80;0.80;;;;;;;5.69;91.41;98954.03;5036149;28;20044;-75
2024/01/31 05:48:21;;;;;;;1.30;1.25;;;;;;;5.67;91.62;98947.16;5031246;28;20045;-74
2024/01/31 05:50:50;;;;;;;0.85;0.85;;;;;;;5.68;91.59;98957.63;5031173;28;20053;-75
2024/01/31 05:53:17;;;;;;;1.27;1.17;;;;;;;5.69;91.47;98945.22;5041076;28;20029;-75
2024/01/31 05:55:45;;;;;;;0.90;0.90;;;;;;;5.70;91.76;98954.88;5054866;28;20041;-74
2024/01/31 05:58:13;;;;;;;0.82;0.82;;;;;;;5.71;91.48;98957.34;5053428;28;20056;-75
2024/01/31 06:00:41;;;;;;;1.27;1.25;;;;;;;5.71;91.39;98952.06;5043772;28;20072;-75
2024/01/31 06:03:09;;;;;;;0.77;0.77;;;;;;;5.76;91.47;98963.13;5049183;28;20044;-76
2024/01/31 06:05:36;;;;;;;1.38;1.27;;;;;;;5.73;90.92;98958.06;5053528;28;20119;-76
2024/01/31 06:08:07;;;;;;;1.13;1.02;;;;;;;5.73;91.38;98965.16;5050268;28;20500;-75
2024/01/31 06:10:35;;;;;;;1.00;1.00;;;;;;;5.73;90.56;98963.38;5051592;28;20041;-76
2024/01/31 06:13:03;;;;;;;0.90;0.80;;;;;;;5.78;90.35;98953.22;5050360;28;20606;-75
2024/01/31 06:15:30;;;;;;;1.48;1.42;;;;;;;5.76;90.39;98955.16;5050013;28;20072;-75
2024/01/31 06:17:58;;;;;;;0.90;0.90;;;;;;;5.72;90.42;98951.09;5049625;28;20049;-74
2024/01/31 06:20:26;;;;;;;1.00;1.00;;;;;;;5.73;90.58;98944.81;5029663;28;20049;-75
2024/01/31 06:22:54;;;;;;;1.10;1.00;;;;;;;5.68;90.64;98944.41;5044311;28;20044;-76
2024/01/31 06:25:23;;;;;;;0.98;0.98;;;;;;;5.61;90.58;98945.84;5030061;28;20037;-76
2024/01/31 06:27:51;;;;;;;0.93;0.93;;;;;;;5.58;90.86;98948.78;5048477;28;20051;-75
2024/01/31 06:30:21;;;;;;;0.80;0.80;;;;;;;5.56;91.02;98942.78;5032166;28;20037;-75
2024/01/31 06:32:49;;;;;;;0.80;0.80;;;;;;;5.55;91.06;98951.69;5048265;28;20094;-74
2024/01/31 06:35:16;;;;;;;0.93;0.93;;;;;;;5.50;91.06;98954.72;5050944;28;20675;-76
2024/01/31 06:37:44;;;;;;;0.95;0.95;;;;;;;5.54;90.90;98952.66;5046839;28;20121;-75
2024/01/31 06:40:12;;;;;;;0.93;0.93;;;;;;;5.56;90.58;98947.22;5043385;28;20118;-75
2024/01/31 06:42:41;;;;;;;0.93;0.93;;;;;;;5.54;90.52;98953.50;5028629;28;20045;-76
2024/01/31 06:45:09;;;;;;;0.90;0.90;;;;;;;5.52;90.21;98955.44;5043427;28;20047;-74
2024/01/31 06:47:41;;;;;;;1.13;1.08;;;;;;;5.54;90.48;98961.44;5033236;28;20045;-75
2024/01/31 06:50:09;;;;;;;0.60;0.60;;;;;;;5.55;90.55;98964.94;5046614;28;20041;-76
2024/01/31 06:52:37;;;;;;;1.00;1.00;;;;;;;5.58;90.15;98962.03;5047829;28;20551;-74
2024/01/31 06:55:05;;;;;;;0.80;0.80;;;;;;;5.59;89.82;98954.94;5045918;28;20041;-76
2024/01/31 06:57:34;;;;;;;0.73;0.73;;;;;;;5.61;89.45;98950.31;5049741;28;20099;-76
2024/01/31 07:00:04;;;;;;;0.80;0.80;;;;;;;5.56;89.53;98963.97;5035841;28;20119;-75
2024/01/31 07:02:32;;;;;;;0.70;0.70;;;;;;;5.51;89.66;98956.38;5046812;28;20157;-76
2024/01/31 07:05:00;;;;;;;1.13;1.13;;;;;;;5.51;89.74;98956.38;5045492;28;20037;-75
2024/01/31 07:07:27;;;;;;;0.90;0.90;;;;;;;5.52;89.75;98970.47;5047594;28;20048;-76
2024/01/31 07:09:55;;;;;;;1.67;1.42;;;;;;;5.60;90.13;98972.50;5049644;28;20068;-75
2024/01/31 07:12:23;;;;;;;1.13;1.13;;;;;;;5.58;89.30;98974.44;5046259;28;20045;-76
2024/01/31 07:14:50;;;;;;;0.85;0.85;;;;;;;5.50;89.11;98973.25;5050560;28;20041;-76
2024/01/31 07:17:19;;;;;;;0.75;0.75;;;;;;;5.48;89.33;98977.00;5028964;28;20060;-75
2024/01/31 07:19:47;;;;;;;1.00;1.00;;;;;;;5.57;89.13;98986.81;5052096;28;20107;-76
2024/01/31 07:22:15;;;;;;;0.95;0.95;;;;;;;5.52;88.86;98984.56;5052595;28;20052;-75
2024/01/31 07:24:43;;;;;;;1.00;1.00;;;;;;;5.51;89.26;98980.22;5054559;28;20120;-76
2024/01/31 07:27:11;;;;;;;1.15;1.13;;;;;;;5.51;89.31;98989.97;5046329;28;20072;-76
2024/01/31 07:29:38;;;;;;;0.90;0.90;;;;;;;5.53;89.11;98990.69;5046184;28;20048;-75
2024/01/31 07:32:06;;;;;;;0.93;0.93;;;;;;;5.57;89.28;98991.28;5051792;28;20132;-74
2024/01/31 07:34:35;;;;;;;1.20;1.20;;;;;;;5.52;89.20;98989.84;5053301;28;20048;-74
2024/01/31 07:37:05;;;;;;;1.25;1.23;;;;;;;5.57;89.13;99000.06;5052562;28;20073;-76
2024/01/31 07:39:33;;;;;;;0.80;0.80;;;;;;;5.59;88.97;99002.59;5032951;28;20057;-76
2024/01/31 07:42:00;;;;;;;0.80;0.80;;;;;;;5.63;88.73;98996.91;5052456;28;20060;-75
2024/01/31 07:44:28;;;;;;;1.05;1.02;;;;;;;5.63;88.64;98996.91;5048380;28;20603;-76
2024/01/31 07:47:02;;;;;;;1.20;1.10;;;;;;;5.61;88.58;98997.97;5054167;28;20103;-75
2024/01/31 07:49:30;;;;;;;1.35;1.25;;;;;;;5.57;88.53;98994.78;5050731;28;20080;-76
2024/01/31 07:51:59;;;;;;;1.10;1.10;;;;;;;5.51;89.22;98998.75;5053029;28;20080;-75
2024/01/31 07:54:30;;;;;;;1.38;1.27;;;;;;;5.50;88.87;99015.59;5045627;28;20041;-75
2024/01/31 07:56:59;;;;;;;1.02;0.93;;;;;;;5.50;88.83;99002.38;5052512;28;20129;-75
2024/01/31 07:59:27;;;;;;;0.93;0.93;;;;;;;5.45;88.96;99015.16;5039982;28;20109;-75
2024/01/31 08:01:54;;;;;;;1.00;1.00;;;;;;;5.48;88.87;99011.44;5051203;28;20056;-76
2024/01/31 08:04:22;;;;;;;1.00;1.00;;;;;;;5.51;88.46;99000.56;5036016;28;20068;-76
2024/01/31 08:06:49;;;;;;;0.95;0.95;;;;;;;5.50;88.10;99009.50;5050612;28;20045;-76
2024/01/31 08:09:19;;;;;;;0.90;0.90;;;;;;;5.42;88.34;99011.91;5052983;28;20047;-75
2024/01/31 08:11:50;;;;;;;1.00;0.90;;;;;;;5.43;88.66;99017.09;5050088;28;20045;-74
2024/01/31 08:14:18;;;;;;;1.17;1.08;;;;;;;5.40;88.25;99014.69;5036104;28;20482;-76
2024/01/31 08:16:45;;;;;;;1.20;1.10;;;;;;;5.34;88.60;99015.22;5050716;28;20483;-75
2024/01/31 08:19:13;;;;;;;1.10;1.10;;;;;;;5.32;89.41;99003.91;5052887;28;20045;-75
2024/01/31 08:21:41;;;;;;;1.30;1.30;;;;;;;5.30;89.19;99008.47;5049277;28;20090;-74
2024/01/31 08:24:08;;;;;;;1.20;1.20;;;;;;;5.17;89.18;99010.47;5049644;28;20047;-76
2024/01/31 08:26:37;;;;;;;1.48;1.40;;;;;;;5.08;89.67;99006.78;5050913;28;20136;-75
2024/01/31 08:29:05;;;;;;;1.25;1.25;;;;;;;5.11;89.63;99013.59;5050956;28;20045;-75
2024/01/31 08:31:46;;;;;;;1.05;1.05;;;;;;;5.14;89.60;99016.84;5051749;28;20045;-75
2024/01/31 08:34:14;;;;;;;1.13;1.13;;;;;;;5.22;89.89;99012.72;5052034;28;20049;-75
2024/01/31 08:36:42;;;;;;;1.17;1.10;;;;;;;5.29;89.42;99021.88;5055790;28;20045;-75
2024/01/31 08:39:10;;;;;;;0.98;0.98;;;;;;;5.35;89.35;99019.53;5051541;28;20049;-74
2024/01/31 08:41:39;;;;;;;1.27;1.20;;;;;;;5.43;88.83;99021.56;5054738;28;20037;-73
2024/01/31 08:44:06;;;;;;;0.80;0.80;;;;;;;5.52;88.46;99020.78;5030647;28;20081;-75
2024/01/31 08:46:34;;;;;;;1.08;1.00;;;;;;;5.62;86.94;99018.19;5049174;28;20416;-75
2024/01/31 08:49:22;;;;;;;1.63;0.93;;;;;;;5.64;86.59;99018.91;5045899;28;20045;-74
2024/01/31 08:51:51;;;;;;;1.40;0.93;;;;;;;5.67;86.57;99023.97;5052405;28;20117;-75
2024/01/31 08:54:19;;;;;;;1.83;1.75;;;;;;;5.84;85.88;99026.03;5044390;28;20053;-75
2024/01/31 08:56:48;;;;;;;0.70;0.70;;;;;;;5.81;85.65;99021.03;5047850;28;20044;-75
2024/01/31 08:59:17;;;;;;;0.80;0.80;;;;;;;5.82;84.36;99026.16;5034884;28;20471;-75
2024/01/31 09:01:45;;;;;;;0.93;0.93;;;;;;;5.88;84.16;99024.84;5051102;28;20155;-75
2024/01/31 09:04:14;;;;;;;0.80;0.80;;;;;;;5.86;84.19;99024.09;5051845;28;20049;-75
2024/01/31 09:06:42;;;;;;;1.05;1.05;;;;;;;5.88;84.03;99028.34;5049018;28;20048;-75
2024/01/31 09:09:10;;;;;;;0.82;0.82;;;;;;;5.98;84.50;99019.59;5052463;28;20110;-75
2024/01/31 09:11:38;;;;;;;1.27;1.17;;;;;;;6.04;84.81;99017.25;5049199;28;20366;-75
2024/01/31 09:14:06;;;;;;;0.77;0.77;;;;;;;6.04;84.59;99019.06;5048813;28;20048;-75
2024/01/31 09:16:34;;;;;;;0.65;0.65;;;;;;;6.04;84.46;99014.63;5054880;28;20055;-74
2024/01/31 09:19:03;;;;;;;0.82;0.82;;;;;;;6.07;84.22;99011.72;5036058;28;20041;-75
2024/01/31 09:21:31;;;;;;;0.82;0.82;;;;;;;6.07;83.90;99008.22;5051704;28;20041;-74
2024/01/31 09:23:59;;;;;;;0.60;0.60;;;;;;;6.08;83.64;99012.56;5053770;28;20071;-75
2024/01/31 09:26:26;;;;;;;0.70;0.70;;;;;;;6.08;83.34;99013.41;5050522;28;20094;-74
2024/01/31 09:28:54;;;;;;;0.60;0.60;;;;;;;6.06;83.07;99019.78;5034318;28;20055;-74
2024/01/31 09:31:23;;;;;;;0.65;0.65;;;;;;;5.98;82.93;99025.75;5049678;28;20105;-75
2024/01/31 09:33:52;;;;;;;0.80;0.80;;;;;;;5.99;83.08;99023.94;5052885;28;20120;-75
2024/01/31 09:36:20;;;;;;;0.90;0.90;;;;;;;6.00;82.98;99021.16;5055504;28;20064;-75
2024/01/31 09:38:48;;;;;;;1.20;0.73;;;;;;;6.09;82.45;99028.34;5033832;28;20055;-75
2024/01/31 09:41:16;;;;;;;0.63;0.63;;;;;;;6.15;82.60;99035.75;5035578;28;20062;-75
2024/01/31 09:43:43;;;;;;;0.93;0.93;;;;;;;6.16;81.91;99045.38;5051112;28;20140;-75
2024/01/31 09:46:11;;;;;;;0.70;0.70;;;;;;;6.22;81.70;99044.88;5050065;28;20033;-74
2024/01/31 09:48:41;;;;;;;0.55;0.55;;;;;;;6.25;81.64;99046.41;5043486;28;20063;-74
2024/01/31 09:51:09;;;;;;;0.70;0.70;;;;;;;6.29;80.99;99046.97;5046829;28;20046;-74
2024/01/31 09:53:37;;;;;;;0.63;0.63;;;;;;;6.33;81.15;99043.94;5035568;28;20144;-75
2024/01/31 09:56:06;;;;;;;0.90;0.90;;;;;;;6.38;81.08;99044.38;5049888;28;20040;-75
2024/01/31 09:58:33;;;;;;;0.63;0.63;;;;;;;6.43;81.00;99034.22;5041081;28;20073;-75
2024/01/31 10:01:01;;;;;;;0.77;0.77;;;;;;;6.44;80.76;99025.28;5051136;28;20120;-73
2024/01/31 10:03:41;;;;;;;0.60;0.60;;;;;;;6.47;78.51;99026.81;5031611;28;20049;-75
2024/01/31 10:06:09;;;;;;;0.68;0.65;;;;;;;6.48;77.18;99023.22;5047121;28;20049;-74
2024/01/31 10:08:39;;;;;;;0.60;0.60;;;;;;;6.57;76.64;99038.31;5047963;28;20053;-74
2024/01/31 10:11:07;;;;;;;0.43;0.43;;;;;;;6.61;74.79;99042.41;5035414;28;20116;-75
2024/01/31 10:13:35;;;;;;;0.57;0.57;;;;;;;6.62;74.48;99029.00;5045415;28;20500;-75
2024/01/31 10:16:03;;;;;;;0.52;0.52;;;;;;;6.74;73.09;99027.09;5046495;28;20048;-75
2024/01/31 10:18:31;;;;;;;0.45;0.43;;;;;;;6.68;73.47;99032.91;5052626;28;20045;-75
2024/01/31 10:21:01;;;;;;;0.35;0.35;;;;;;;6.62;73.08;99030.81;5049303;28;20117;-75
2024/01/31 10:23:29;;;;;;;0.40;0.40;;;;;;;6.58;73.24;99022.28;5052293;28;20045;-75
2024/01/31 10:25:56;;;;;;;0.38;0.38;;;;;;;6.57;73.55;99017.94;5045252;28;20041;-74
2024/01/31 10:28:24;;;;;;;1.27;0.45;;;;;;;6.62;73.72;99023.69;5046955;28;20101;-75
2024/01/31 10:30:52;;;;;;;0.47;0.47;;;;;;;6.78;71.76;99012.56;5042357;28;20451;-74
2024/01/31 10:33:21;;;;;;;0.32;0.32;;;;;;;6.66;71.59;99028.72;5045526;28;20396;-75
2024/01/31 10:35:49;;;;;;;0.25;0.25;;;;;;;6.78;71.21;99017.03;5054090;28;20041;-74
2024/01/31 10:38:38;;;;;;;0.40;0.40;;;;;;;6.73;71.16;99021.91;5048346;28;20052;-75
2024/01/31 10:41:07;;;;;;;0.30;0.30;;;;;;;6.71;70.37;99026.50;5052910;28;20116;-73
2024/01/31 10:43:36;;;;;;;0.20;0.20;;;;;;;6.61;69.67;99016.72;5048915;28;20094;-75
2024/01/31 10:46:04;;;;;;;0.20;0.20;;;;;;;6.70;69.63;99015.06;5051172;28;20052;-75
2024/01/31 10:48:32;;;;;;;0.43;0.43;;;;;;;6.75;69.25;99014.66;5048141;28;20053;-75
2024/01/31 10:51:01;;;;;;;0.30;0.30;;;;;;;6.74;69.31;99012.97;5049788;28;20048;-74
2024/01/31 10:53:29;;;;;;;0.43;0.43;;;;;;;6.74;69.42;99000.56;5034501;28;20049;-75
2024/01/31 10:55:59;;;;;;;0.30;0.30;;;;;;;6.72;69.02;98991.03;5047103;28;20045;-75
2024/01/31 10:58:29;;;;;;;0.28;0.28;;;;;;;6.79;69.62;98986.88;5038416;28;20049;-75
2024/01/31 11:00:56;;;;;;;0.52;0.52;;;;;;;6.70;69.29;98983.22;5048985;28;20120;-73
2024/01/31 11:03:24;;;;;;;0.32;0.32;;;;;;;6.74;69.48;98986.44;5033006;28;20041;-75
2024/01/31 11:05:53;;;;;;;0.22;0.22;;;;;;;6.71;69.53;98989.38;5051259;28;20044;-75
2024/01/31 11:08:22;;;;;;;0.43;0.43;;;;;;;6.77;69.65;98981.69;5054801;28;20400;-74
2024/01/31 11:10:50;;;;;;;0.82;0.82;;;;;;;6.87;69.77;98979.91;5057082;28;20059;-75
2024/01/31 11:13:19;;;;;;;0.20;0.20;;;;;;;6.91;68.74;98981.31;5049760;28;20038;-75
2024/01/31 11:15:47;;;;;;;0.30;0.30;;;;;;;6.99;69.03;98984.09;5053055;28;20045;-73
2024/01/31 11:18:15;;;;;;;0.43;0.43;;;;;;;7.06;68.94;98978.28;5056098;28;20104;-74
2024/01/31 11:20:46;;;;;;;0.25;0.25;;;;;;;6.98;67.73;98968.31;5053013;28;20047;-74
2024/01/31 11:23:16;;;;;;;0.35;0.35;;;;;;;6.96;68.34;98965.78;5055376;28;20471;-74
2024/01/31 11:25:44;;;;;;;0.30;0.30;;;;;;;7.04;68.64;98964.28;5051285;28;20484;-75
2024/01/31 11:28:12;;;;;;;0.50;0.50;;;;;;;7.15;69.19;98966.81;5056036;28;20111;-74
2024/01/31 11:30:42;;;;;;;0.22;0.22;;;;;;;7.18;68.01;98958.53;5047637;28;20049;-75
2024/01/31 11:33:12;;;;;;;0.52;0.52;;;;;;;7.17;67.76;98960.38;5052751;28;20045;-74
2024/01/31 11:35:39;;;;;;;0.50;0.50;;;;;;;7.21;68.29;98961.78;5054910;28;20378;-74
2024/01/31 11:38:08;;;;;;;0.35;0.35;;;;;;;7.20;67.03;98964.56;5051630;28;20037;-74
2024/01/31 11:40:36;;;;;;;0.22;0.22;;;;;;;7.13;66.72;98968.75;5054025;28;20091;-75
2024/01/31 11:43:04;;;;;;;0.35;0.30;;;;;;;7.18;66.24;98963.84;5063365;22;20132;-73
2024/01/31 11:45:32;;;;;;;0.40;0.40;;;;;;;7.27;66.36;98960.38;5049717;28;20117;-72
2024/01/31 11:48:03;;;;;;;0.40;0.40;;;;;;;7.34;66.90;98958.84;5051912;28;20037;-73